createdAt,value
2018-01-25T00:01:33.978Z,100674.89
2018-01-25T00:04:00.208Z,100677.98
2018-01-25T00:06:26.520Z,100680.21
2018-01-25T00:08:52.721Z,100674.92
2018-01-25T00:11:18.935Z,100671.42
2018-01-25T00:13:45.212Z,100677.11
2018-01-25T00:16:11.653Z,100686.33
2018-01-25T00:18:37.878Z,100689.00
2018-01-25T00:21:04.137Z,100689.91
2018-01-25T00:23:30.333Z,100697.34
2018-01-25T00:25:56.606Z,100694.32
2018-01-25T00:28:23.082Z,100710.83
2018-01-25T00:30:49.279Z,100712.50
2018-01-25T00:33:15.581Z,100710.76
2018-01-25T00:35:41.867Z,100710.32
2018-01-25T00:38:08.305Z,100710.36
2018-01-25T00:40:34.844Z,100720.86
2018-01-25T00:43:01.037Z,100729.97
2018-01-25T00:45:27.342Z,100734.42
2018-01-25T00:47:53.541Z,100743.13
2018-01-25T00:50:19.792Z,100754.03
2018-01-25T00:52:46.049Z,100745.25
2018-01-25T00:55:12.272Z,100751.70
2018-01-25T00:57:38.513Z,100753.84
2018-01-25T01:00:04.775Z,100744.27
2018-01-25T01:02:31.312Z,100753.01
2018-01-25T01:04:57.501Z,100748.23
2018-01-25T01:07:23.746Z,100749.98
2018-01-25T01:09:50.060Z,100758.77
2018-01-25T01:12:16.293Z,100761.47
2018-01-25T01:14:42.861Z,100767.12
2018-01-25T01:17:09.154Z,100770.58
2018-01-25T01:19:35.729Z,100765.80
2018-01-25T01:22:02.259Z,100757.09
2018-01-25T01:24:28.786Z,100755.78
2018-01-25T01:26:55.336Z,100753.16
2018-01-25T01:29:21.626Z,100760.19
2018-01-25T01:31:48.200Z,100762.08
2018-01-25T01:34:14.435Z,100768.17
2018-01-25T01:36:41.063Z,100777.80
2018-01-25T01:39:07.341Z,100790.92
2018-01-25T01:41:33.581Z,100800.17
2018-01-25T01:43:59.861Z,100813.77
2018-01-25T01:46:26.095Z,100811.61
2018-01-25T01:48:52.286Z,100805.02
2018-01-25T01:51:18.532Z,100803.23
2018-01-25T01:53:44.736Z,100803.34
2018-01-25T01:56:10.921Z,100794.12
2018-01-25T01:58:37.192Z,100794.92
2018-01-25T02:01:03.447Z,100782.71
2018-01-25T02:03:29.664Z,100777.87
2018-01-25T02:05:55.948Z,100769.12
2018-01-25T02:08:22.185Z,100764.34
2018-01-25T02:10:48.406Z,100777.86
2018-01-25T02:13:14.683Z,100791.83
2018-01-25T02:15:41.229Z,100804.08
2018-01-25T02:18:07.456Z,100809.36
2018-01-25T02:20:33.739Z,100810.27
2018-01-25T02:22:59.960Z,100804.55
2018-01-25T02:25:26.266Z,100799.30
2018-01-25T02:27:52.505Z,100805.42
2018-01-25T02:30:18.714Z,100800.17
2018-01-25T02:32:44.980Z,100808.02
2018-01-25T02:35:11.317Z,100800.61
2018-01-25T02:37:37.560Z,100799.77
2018-01-25T02:40:03.821Z,100797.98
2018-01-25T02:42:30.097Z,100799.73
2018-01-25T02:44:56.351Z,100817.23
2018-01-25T02:47:22.629Z,100814.20
2018-01-25T02:49:48.850Z,100796.34
2018-01-25T02:52:15.066Z,100802.97
2018-01-25T02:54:41.326Z,100788.06
2018-01-25T02:57:07.554Z,100778.91
2018-01-25T02:59:33.746Z,100789.84
2018-01-25T03:02:00.020Z,100792.98
2018-01-25T03:04:26.250Z,100800.81
2018-01-25T03:06:52.485Z,100794.25
2018-01-25T03:09:18.807Z,100801.66
2018-01-25T03:11:45.036Z,100824.44
2018-01-25T03:14:11.234Z,100838.43
2018-01-25T03:16:37.526Z,100848.09
2018-01-25T03:19:03.779Z,100841.02
2018-01-25T03:21:29.962Z,100833.14
2018-01-25T03:23:56.530Z,100826.12
2018-01-25T03:26:22.740Z,100830.89
2018-01-25T03:28:48.947Z,100829.61
2018-01-25T03:31:15.418Z,100832.68
2018-01-25T03:33:41.643Z,100840.55
2018-01-25T03:36:07.931Z,100842.27
2018-01-25T03:38:34.233Z,100856.66
2018-01-25T03:41:00.449Z,100861.52
2018-01-25T03:43:26.693Z,100844.86
2018-01-25T03:45:52.991Z,100868.04
2018-01-25T03:48:19.221Z,100883.38
2018-01-25T03:50:45.430Z,100881.20
2018-01-25T03:53:11.981Z,100872.45
2018-01-25T03:55:38.205Z,100879.44
2018-01-25T03:58:04.410Z,100882.54
2018-01-25T04:00:30.724Z,100880.82
2018-01-25T04:02:56.936Z,100876.89
2018-01-25T04:05:23.150Z,100882.54
2018-01-25T04:07:49.404Z,100892.62
2018-01-25T04:10:15.885Z,100893.51
2018-01-25T04:12:42.061Z,100886.07
2018-01-25T04:15:08.394Z,100877.29
2018-01-25T04:17:34.876Z,100886.47
2018-01-25T04:20:01.101Z,100885.20
2018-01-25T04:22:27.346Z,100884.32
2018-01-25T04:24:53.566Z,100891.35
2018-01-25T04:27:20.102Z,100886.10
2018-01-25T04:29:52.479Z,100883.52
2018-01-25T04:32:19.010Z,100895.79
2018-01-25T04:34:45.227Z,100899.76
2018-01-25T04:37:11.976Z,100892.30
2018-01-25T04:39:38.230Z,100900.13
2018-01-25T04:42:04.430Z,100893.07
2018-01-25T04:44:30.965Z,100905.72
2018-01-25T04:46:57.200Z,100903.59
2018-01-25T04:49:23.392Z,100907.09
2018-01-25T04:51:49.612Z,100907.13
2018-01-25T04:54:15.808Z,100909.31
2018-01-25T04:56:47.990Z,100914.13
2018-01-25T04:59:14.266Z,100909.72
2018-01-25T05:01:40.487Z,100906.19
2018-01-25T05:04:06.779Z,100915.88
2018-01-25T05:06:33.014Z,100908.03
2018-01-25T05:08:59.605Z,100910.25
2018-01-25T05:11:25.864Z,100912.41
2018-01-25T05:13:52.055Z,100910.09
2018-01-25T05:16:18.474Z,100916.19
2018-01-25T05:18:44.889Z,100914.03
2018-01-25T05:21:11.476Z,100920.19
2018-01-25T05:23:37.816Z,100921.06
2018-01-25T05:26:04.020Z,100921.16
2018-01-25T05:28:30.258Z,100923.78
2018-01-25T05:30:56.574Z,100923.34
2018-01-25T05:33:22.851Z,100927.69
2018-01-25T05:35:49.086Z,100932.41
2018-01-25T05:38:15.779Z,100931.40
2018-01-25T05:40:42.011Z,100936.19
2018-01-25T05:43:08.224Z,100937.00
2018-01-25T05:45:34.516Z,100933.97
2018-01-25T05:48:00.702Z,100933.97
2018-01-25T05:50:26.897Z,100931.84
2018-01-25T05:52:53.661Z,100929.63
2018-01-25T05:55:20.191Z,100932.66
2018-01-25T05:57:46.434Z,100925.28
2018-01-25T06:00:13.002Z,100932.22
2018-01-25T06:02:39.243Z,100926.59
2018-01-25T06:05:05.476Z,100936.75
2018-01-25T06:07:31.778Z,100938.15
2018-01-25T06:09:58.268Z,100936.00
2018-01-25T06:12:24.489Z,100939.52
2018-01-25T06:14:50.753Z,100948.36
2018-01-25T06:17:17.267Z,100948.33
2018-01-25T06:19:43.618Z,100957.08
2018-01-25T06:22:09.868Z,100961.95
2018-01-25T06:24:36.154Z,100960.20
2018-01-25T06:27:02.780Z,100969.42
2018-01-25T06:29:29.210Z,100976.88
2018-01-25T06:31:55.432Z,100980.00
2018-01-25T06:34:22.080Z,100982.22
2018-01-25T06:36:48.337Z,100983.96
2018-01-25T06:39:14.853Z,100984.81
2018-01-25T06:41:41.398Z,100987.88
2018-01-25T06:44:07.599Z,100983.38
2018-01-25T06:46:33.928Z,100985.88
2018-01-25T06:49:00.284Z,100992.83
2018-01-25T06:51:26.519Z,100997.61
2018-01-25T06:53:52.909Z,100993.64
2018-01-25T06:56:19.236Z,100993.17
2018-01-25T06:58:45.462Z,100999.27
2018-01-25T07:01:11.641Z,101004.52
2018-01-25T07:03:37.880Z,101000.58
2018-01-25T07:06:04.111Z,101004.95
2018-01-25T07:08:30.886Z,101006.73
2018-01-25T07:10:57.123Z,101004.95
2018-01-25T07:13:23.369Z,101011.11
2018-01-25T07:15:49.919Z,101015.48
2018-01-25T07:18:16.159Z,101007.26
2018-01-25T07:20:42.366Z,101007.14
2018-01-25T07:23:08.616Z,101004.52
2018-01-25T07:25:34.835Z,101011.52
2018-01-25T07:28:01.039Z,101010.70
2018-01-25T07:30:27.321Z,101010.32
2018-01-25T07:32:53.822Z,101008.59
2018-01-25T07:35:20.040Z,101011.25
2018-01-25T07:37:46.990Z,101019.19
2018-01-25T07:40:13.227Z,101020.96
2018-01-25T07:42:39.505Z,101026.20
2018-01-25T07:45:05.754Z,101030.23
2018-01-25T07:47:31.972Z,101033.30
2018-01-25T07:49:58.231Z,101040.23
2018-01-25T07:52:24.542Z,101033.23
2018-01-25T07:54:50.773Z,101040.23
2018-01-25T07:57:22.911Z,101034.98
2018-01-25T07:59:49.158Z,101034.95
2018-01-25T08:02:15.413Z,101041.52
2018-01-25T08:04:41.641Z,101038.45
2018-01-25T08:07:07.940Z,101035.80
2018-01-25T08:09:34.186Z,101035.86
2018-01-25T08:12:00.419Z,101049.39
2018-01-25T08:14:26.914Z,101044.52
2018-01-25T08:16:53.132Z,101047.15
2018-01-25T08:19:19.334Z,101049.74
2018-01-25T08:21:45.562Z,101040.15
2018-01-25T08:24:11.771Z,101039.25
2018-01-25T08:26:38.036Z,101035.34
2018-01-25T08:29:04.256Z,101038.78
2018-01-25T08:31:30.871Z,101032.66
2018-01-25T08:33:57.134Z,101032.66
2018-01-25T08:36:23.633Z,101037.84
2018-01-25T08:38:49.903Z,101033.47
2018-01-25T08:41:16.110Z,101037.84
2018-01-25T08:43:42.332Z,101041.41
2018-01-25T08:46:08.607Z,101034.05
2018-01-25T08:48:35.186Z,101043.50
2018-01-25T08:51:01.510Z,101046.13
2018-01-25T08:53:28.193Z,101046.13
2018-01-25T08:55:54.662Z,101046.13
2018-01-25T08:58:20.893Z,101061.47
2018-01-25T09:00:47.163Z,101066.28
2018-01-25T09:03:13.487Z,101054.03
2018-01-25T09:05:39.686Z,101057.09
2018-01-25T09:08:05.955Z,101060.97
2018-01-25T09:10:32.190Z,101053.51
2018-01-25T09:12:58.424Z,101043.38
2018-01-25T09:15:24.679Z,101048.17
2018-01-25T09:17:51.146Z,101047.70
2018-01-25T09:20:17.437Z,101052.95
2018-01-25T09:22:43.680Z,101049.80
2018-01-25T09:25:09.880Z,101054.27
2018-01-25T09:27:36.160Z,101062.61
2018-01-25T09:30:02.493Z,101060.86
2018-01-25T09:32:28.811Z,101058.20
2018-01-25T09:34:55.112Z,101062.55
2018-01-25T09:37:21.320Z,101062.58
2018-01-25T09:39:47.532Z,101071.30
2018-01-25T09:42:14.022Z,101075.64
2018-01-25T09:44:40.263Z,101073.95
2018-01-25T09:47:06.492Z,101082.27
2018-01-25T09:49:33.092Z,101088.83
2018-01-25T09:51:59.329Z,101091.45
2018-01-25T09:54:25.556Z,101096.20
2018-01-25T09:56:51.841Z,101099.73
2018-01-25T09:59:18.074Z,101091.48
2018-01-25T10:01:44.289Z,101095.45
2018-01-25T10:04:11.218Z,101101.98
2018-01-25T10:06:37.407Z,101110.38
2018-01-25T10:09:03.772Z,101115.19
2018-01-25T10:11:30.076Z,101116.86
2018-01-25T10:13:56.343Z,101124.34
2018-01-25T10:16:22.562Z,101107.34
2018-01-25T10:18:48.848Z,101123.94
2018-01-25T10:21:15.342Z,101118.66
2018-01-25T10:23:41.579Z,101117.34
2018-01-25T10:26:07.895Z,101119.50
2018-01-25T10:28:34.124Z,101123.83
2018-01-25T10:31:00.316Z,101117.21
2018-01-25T10:33:26.546Z,101124.19
2018-01-25T10:35:52.753Z,101118.87
2018-01-25T10:38:19.303Z,101124.13
2018-01-25T10:40:45.569Z,101118.03
2018-01-25T10:43:11.812Z,101121.06
2018-01-25T10:45:38.308Z,101127.16
2018-01-25T10:48:04.740Z,101121.45
2018-01-25T10:50:30.921Z,101115.73
2018-01-25T10:52:57.201Z,101125.79
2018-01-25T10:55:23.413Z,101119.20
2018-01-25T10:57:49.708Z,101123.98
2018-01-25T11:00:15.958Z,101116.95
2018-01-25T11:02:42.259Z,101121.69
2018-01-25T11:05:08.530Z,101123.41
2018-01-25T11:07:34.755Z,101108.37
2018-01-25T11:10:01.734Z,101112.20
2018-01-25T11:12:28.051Z,101115.73
2018-01-25T11:14:54.285Z,101118.82
2018-01-25T11:17:20.547Z,101115.29
2018-01-25T11:19:46.802Z,101117.92
2018-01-25T11:22:13.145Z,101106.91
2018-01-25T11:24:39.364Z,101104.76
2018-01-25T11:27:05.731Z,101106.04
2018-01-25T11:29:32.574Z,101107.77
2018-01-25T11:31:58.800Z,101106.39
2018-01-25T11:34:25.033Z,101107.20
2018-01-25T11:36:51.319Z,101098.51
2018-01-25T11:39:25.136Z,101106.73
2018-01-25T11:41:51.608Z,101104.20
2018-01-25T11:44:17.942Z,101102.07
2018-01-25T11:46:44.208Z,101105.54
2018-01-25T11:49:10.457Z,101103.38
2018-01-25T11:51:36.668Z,101109.16
2018-01-25T11:56:35.750Z,101113.86
2018-01-25T11:59:01.991Z,101110.80
2018-01-25T12:01:28.269Z,101113.42
2018-01-25T12:03:54.558Z,101117.73
2018-01-25T12:06:20.777Z,101110.70
2018-01-25T12:08:47.092Z,101116.37
2018-01-25T12:11:13.527Z,101113.24
2018-01-25T12:13:39.721Z,101114.87
2018-01-25T12:16:06.340Z,101117.44
2018-01-25T12:18:32.551Z,101117.84
2018-01-25T12:20:58.800Z,101111.74
2018-01-25T12:23:25.374Z,101108.80
2018-01-25T12:25:51.571Z,101120.69
2018-01-25T12:28:17.804Z,101114.17
2018-01-25T12:30:44.451Z,101118.23
2018-01-25T12:33:10.994Z,101110.01
2018-01-25T12:35:37.532Z,101113.11
2018-01-25T12:38:03.814Z,101111.44
2018-01-25T12:40:30.020Z,101113.63
2018-01-25T12:42:56.246Z,101106.16
2018-01-25T12:45:22.488Z,101107.87
2018-01-25T12:47:48.688Z,101103.53
2018-01-25T12:50:15.169Z,101101.75
2018-01-25T12:52:41.409Z,101099.94
2018-01-25T12:55:07.635Z,101095.50
2018-01-25T12:57:33.916Z,101095.13
2018-01-25T13:00:00.373Z,101098.02
2018-01-25T13:02:26.583Z,101099.32
2018-01-25T13:04:53.180Z,101094.19
2018-01-25T13:07:19.384Z,101097.63
2018-01-25T13:09:45.611Z,101098.95
2018-01-25T13:12:11.857Z,101095.41
2018-01-25T13:14:38.055Z,101091.91
2018-01-25T13:17:04.671Z,101094.54
2018-01-25T13:19:30.905Z,101091.81
2018-01-25T13:21:57.205Z,101093.95
2018-01-25T13:24:23.828Z,101094.86
2018-01-25T13:26:50.063Z,101096.55
2018-01-25T13:29:16.313Z,101099.58
2018-01-25T13:31:42.596Z,101097.45
2018-01-25T13:34:08.797Z,101104.05
2018-01-25T13:36:35.268Z,101109.71
2018-01-25T13:39:01.737Z,101103.17
2018-01-25T13:41:28.207Z,101104.98
2018-01-25T13:43:54.437Z,101107.20
2018-01-25T13:46:20.987Z,101100.67
2018-01-25T13:48:47.263Z,101109.45
2018-01-25T13:51:13.509Z,101111.52
2018-01-25T13:53:39.841Z,101108.30
2018-01-25T13:56:06.078Z,101107.42
2018-01-25T13:58:32.584Z,101099.17
2018-01-25T14:00:59.311Z,101102.23
2018-01-25T14:03:25.564Z,101099.64
2018-01-25T14:05:51.782Z,101099.14
2018-01-25T14:08:18.094Z,101100.42
2018-01-25T14:10:44.312Z,101101.73
2018-01-25T14:13:10.867Z,101093.02
2018-01-25T14:15:37.122Z,101092.54
2018-01-25T14:18:03.350Z,101098.73
2018-01-25T14:20:29.643Z,101105.77
2018-01-25T14:22:55.973Z,101108.89
2018-01-25T14:25:22.189Z,101115.05
2018-01-25T14:27:48.500Z,101108.55
2018-01-25T14:30:14.772Z,101102.42
2018-01-25T14:32:40.998Z,101099.39
2018-01-25T14:35:07.307Z,101099.91
2018-01-25T14:37:33.546Z,101106.08
2018-01-25T14:39:59.807Z,101100.88
2018-01-25T14:42:26.099Z,101096.56
2018-01-25T14:44:52.552Z,101103.62
2018-01-25T14:47:18.786Z,101109.34
2018-01-25T14:49:45.089Z,101108.50
2018-01-25T14:52:11.738Z,101115.50
2018-01-25T14:54:38.030Z,101115.96
2018-01-25T14:57:04.321Z,101117.28
2018-01-25T14:59:31.031Z,101124.34
2018-01-25T15:01:57.267Z,101128.25
2018-01-25T15:04:23.581Z,101131.30
2018-01-25T15:06:49.817Z,101126.06
2018-01-25T15:09:16.109Z,101121.80
2018-01-25T15:11:42.353Z,101129.61
2018-01-25T15:14:08.600Z,101134.45
2018-01-25T15:16:35.658Z,101132.30
2018-01-25T15:19:02.140Z,101129.32
2018-01-25T15:21:28.731Z,101125.77
2018-01-25T15:23:55.277Z,101117.45
2018-01-25T15:26:21.507Z,101116.14
2018-01-25T15:28:47.755Z,101119.55
2018-01-25T15:31:13.995Z,101120.43
2018-01-25T15:33:40.874Z,101133.12
2018-01-25T15:36:07.114Z,101133.61
2018-01-25T15:38:33.324Z,101134.08
2018-01-25T15:40:59.666Z,101130.19
2018-01-25T15:43:25.949Z,101128.06
2018-01-25T15:45:52.184Z,101130.28
2018-01-25T15:48:18.859Z,101129.43
2018-01-25T15:50:45.514Z,101122.05
2018-01-25T15:53:11.862Z,101120.33
2018-01-25T15:55:38.528Z,101122.11
2018-01-25T15:58:04.777Z,101126.97
2018-01-25T16:00:31.001Z,101127.47
2018-01-25T16:02:57.282Z,101131.86
2018-01-25T16:05:23.542Z,101127.46
2018-01-25T16:07:50.152Z,101134.45
2018-01-25T16:10:16.475Z,101142.30
2018-01-25T16:12:42.705Z,101142.77
2018-01-25T16:15:08.985Z,101151.06
2018-01-25T16:17:35.232Z,101150.15
2018-01-25T16:20:01.459Z,101154.12
2018-01-25T16:22:27.748Z,101148.86
2018-01-25T16:24:53.990Z,101148.46
2018-01-25T16:27:20.325Z,101151.05
2018-01-25T16:29:46.976Z,101146.68
2018-01-25T16:32:13.220Z,101142.72
2018-01-25T16:34:39.499Z,101144.08
2018-01-25T16:37:05.787Z,101140.12
2018-01-25T16:39:32.446Z,101142.31
2018-01-25T16:41:58.696Z,101144.91
2018-01-25T16:44:24.996Z,101140.09
2018-01-25T16:46:51.633Z,101139.25
2018-01-25T16:49:17.860Z,101137.93
2018-01-25T16:51:44.150Z,101141.05
2018-01-25T16:54:10.428Z,101134.05
2018-01-25T16:56:36.728Z,101132.33
2018-01-25T16:59:02.973Z,101134.57
2018-01-25T17:01:29.549Z,101139.82
2018-01-25T17:03:56.065Z,101136.78
2018-01-25T17:06:22.344Z,101130.22
2018-01-25T17:08:48.658Z,101138.53
2018-01-25T17:11:14.915Z,101145.11
2018-01-25T17:13:41.146Z,101141.63
2018-01-25T17:16:07.696Z,101149.92
2018-01-25T17:18:33.939Z,101149.52
2018-01-25T17:21:00.168Z,101149.05
2018-01-25T17:23:26.731Z,101157.75
2018-01-25T17:25:52.987Z,101159.99
2018-01-25T17:28:19.213Z,101163.11
2018-01-25T17:30:45.798Z,101169.17
2018-01-25T17:33:12.027Z,101162.23
2018-01-25T17:35:38.286Z,101170.10
2018-01-25T17:38:04.872Z,101172.29
2018-01-25T17:40:31.098Z,101174.04
2018-01-25T17:42:57.639Z,101167.02
2018-01-25T17:45:23.901Z,101164.83
2018-01-25T17:47:50.125Z,101162.64
2018-01-25T17:50:16.344Z,101170.56
2018-01-25T17:52:42.937Z,101171.00
2018-01-25T17:55:09.327Z,101171.44
2018-01-25T17:57:35.582Z,101172.72
2018-01-25T18:00:01.917Z,101191.50
2018-01-25T18:02:28.224Z,101202.02
2018-01-25T18:04:54.826Z,101207.33
2018-01-25T18:07:21.426Z,101200.33
2018-01-25T18:09:47.655Z,101197.70
2018-01-25T18:12:13.921Z,101191.12
2018-01-25T18:14:40.492Z,101189.25
2018-01-25T18:17:06.968Z,101190.92
2018-01-25T18:19:33.228Z,101199.23
2018-01-25T18:21:59.856Z,101190.02
2018-01-25T18:24:26.248Z,101196.11
2018-01-25T18:26:52.789Z,101190.42
2018-01-25T18:29:19.355Z,101191.68
2018-01-25T18:31:45.593Z,101199.11
2018-01-25T18:34:12.058Z,101198.20
2018-01-25T18:36:38.594Z,101207.39
2018-01-25T18:39:04.817Z,101206.98
2018-01-25T18:41:31.053Z,101206.52
2018-01-25T18:43:57.332Z,101206.87
2018-01-25T18:46:23.590Z,101214.29
2018-01-25T18:48:49.856Z,101223.03
2018-01-25T18:51:16.114Z,101213.84
2018-01-25T18:53:42.348Z,101219.15
2018-01-25T18:56:08.719Z,101216.58
2018-01-25T18:58:34.971Z,101213.54
2018-01-25T19:01:01.221Z,101205.71
2018-01-25T19:03:27.477Z,101212.25
2018-01-25T19:05:54.002Z,101208.80
2018-01-25T19:08:20.218Z,101215.31
2018-01-25T19:10:46.735Z,101216.94
2018-01-25T19:13:12.966Z,101209.44
2018-01-25T19:15:39.204Z,101214.28
2018-01-25T19:18:05.758Z,101212.16
2018-01-25T19:20:31.957Z,101222.09
2018-01-25T19:22:58.206Z,101222.06
2018-01-25T19:25:24.746Z,101218.12
2018-01-25T19:27:50.984Z,101214.20
2018-01-25T19:30:17.217Z,101217.27
2018-01-25T19:32:43.733Z,101212.02
2018-01-25T19:35:09.977Z,101209.37
2018-01-25T19:37:36.191Z,101203.33
2018-01-25T19:40:02.469Z,101208.19
2018-01-25T19:42:28.688Z,101201.70
2018-01-25T19:44:55.363Z,101201.34
2018-01-25T19:47:22.512Z,101210.47
2018-01-25T19:49:48.730Z,101211.33
2018-01-25T19:52:15.004Z,101209.58
2018-01-25T19:54:41.208Z,101216.58
2018-01-25T19:57:13.604Z,101210.94
2018-01-25T19:59:39.876Z,101218.79
2018-01-25T20:02:06.233Z,101220.02
2018-01-25T20:04:32.586Z,101228.70
2018-01-25T20:06:58.785Z,101227.66
2018-01-25T20:09:25.019Z,101230.66
2018-01-25T20:11:51.384Z,101218.86
2018-01-25T20:14:17.597Z,101206.69
2018-01-25T20:16:43.809Z,101206.33
2018-01-25T20:19:10.356Z,101212.51
2018-01-25T20:21:36.594Z,101216.52
2018-01-25T20:24:02.801Z,101214.47
2018-01-25T20:26:29.108Z,101216.60
2018-01-25T20:28:55.695Z,101221.39
2018-01-25T20:31:21.896Z,101226.56
2018-01-25T20:33:48.130Z,101232.69
2018-01-25T20:36:14.377Z,101230.98
2018-01-25T20:38:40.610Z,101243.24
2018-01-25T20:41:06.879Z,101249.28
2018-01-25T20:43:33.463Z,101244.34
2018-01-25T20:45:59.703Z,101239.04
2018-01-25T20:48:26.163Z,101233.33
2018-01-25T20:50:52.421Z,101224.98
2018-01-25T20:53:18.999Z,101218.88
2018-01-25T20:55:45.658Z,101226.36
2018-01-25T20:58:11.993Z,101226.82
2018-01-25T21:00:38.495Z,101236.45
2018-01-25T21:03:04.840Z,101236.87
2018-01-25T21:05:31.088Z,101230.31
2018-01-25T21:07:57.592Z,101235.21
2018-01-25T21:10:24.004Z,101235.65
2018-01-25T21:12:50.248Z,101233.53
2018-01-25T21:15:16.484Z,101239.63
2018-01-25T21:17:43.085Z,101236.16
2018-01-25T21:20:09.304Z,101233.61
2018-01-25T21:22:35.531Z,101226.18
2018-01-25T21:25:02.113Z,101234.03
2018-01-25T21:27:28.579Z,101237.99
2018-01-25T21:29:54.952Z,101228.34
2018-01-25T21:32:21.250Z,101229.11
2018-01-25T21:34:47.486Z,101232.11
2018-01-25T21:37:14.025Z,101236.05
2018-01-25T21:39:40.242Z,101235.19
2018-01-25T21:42:06.502Z,101235.55
2018-01-25T21:44:32.768Z,101240.74
2018-01-25T21:46:59.027Z,101255.62
2018-01-25T21:49:25.516Z,101258.27
2018-01-25T21:51:51.807Z,101259.97
2018-01-25T21:54:18.016Z,101260.84
2018-01-25T21:56:44.274Z,101259.12
2018-01-25T21:59:10.621Z,101263.50
2018-01-25T22:01:37.124Z,101262.62
2018-01-25T22:04:03.652Z,101275.31
2018-01-25T22:06:29.884Z,101276.59
2018-01-25T22:08:56.172Z,101284.05
2018-01-25T22:11:22.418Z,101286.20
2018-01-25T22:13:48.632Z,101284.52
2018-01-25T22:16:14.914Z,101279.64
2018-01-25T22:18:41.169Z,101281.75
2018-01-25T22:21:07.693Z,101268.09
2018-01-25T22:23:34.116Z,101269.86
2018-01-25T22:26:00.382Z,101269.00
2018-01-25T22:28:26.671Z,101276.89
2018-01-25T22:30:52.945Z,101272.05
2018-01-25T22:33:19.158Z,101271.64
2018-01-25T22:35:45.413Z,101270.32
2018-01-25T22:38:11.923Z,101272.09
2018-01-25T22:40:38.250Z,101270.76
2018-01-25T22:43:04.573Z,101274.70
2018-01-25T22:45:31.022Z,101277.76
2018-01-25T22:47:57.245Z,101273.77
2018-01-25T22:50:23.788Z,101271.11
2018-01-25T22:52:50.002Z,101272.87
2018-01-25T22:55:16.209Z,101273.71
2018-01-25T22:57:42.477Z,101271.06
2018-01-25T23:00:08.835Z,101278.91
2018-01-25T23:02:35.526Z,101282.86
2018-01-25T23:05:01.774Z,101283.76
2018-01-25T23:07:27.978Z,101279.41
2018-01-25T23:09:54.806Z,101274.59
2018-01-25T23:12:21.365Z,101282.50
2018-01-25T23:14:47.595Z,101289.01
2018-01-25T23:17:14.276Z,101294.23
2018-01-25T23:19:40.879Z,101293.80
2018-01-25T23:22:07.155Z,101293.80
2018-01-25T23:24:33.557Z,101297.33
2018-01-25T23:26:59.855Z,101289.89
2018-01-25T23:29:26.135Z,101297.33
2018-01-25T23:31:52.738Z,101294.27
2018-01-25T23:34:19.486Z,101294.67
2018-01-25T23:36:45.974Z,101298.15
2018-01-25T23:39:12.303Z,101296.40
2018-01-25T23:41:38.573Z,101297.72
2018-01-25T23:44:04.869Z,101291.15
2018-01-25T23:46:31.073Z,101298.59
2018-01-25T23:48:57.339Z,101300.34
2018-01-25T23:51:23.718Z,101299.49
2018-01-25T23:53:49.974Z,101290.27
2018-01-25T23:56:16.337Z,101288.92
2018-01-25T23:58:43.285Z,101296.42
